Time;durP1;ratioP1;P1;durP2;ratioP2;P2;SDS_P1;SDS_P2;PMS_P1;PMS_P2;Temp;Humidity;BMP_temperature;BMP_pressure;BME280_temperature;BME280_humidity;BME280_pressure;Samples;Min_cycle;Max_cycle;Signal;HPM_P1;HPM_P2
2024/04/25 00:01:09;;;;;;;13.88;7.90;;;1.80;99.90;;;;;;6408183;22;20023;-80
2024/04/25 00:04:05;;;;;;;12.40;8.07;;;1.80;1.00;;;;;;6331636;22;20588;-80
2024/04/25 00:06:53;;;;;;;13.40;8.15;;;1.80;1.00;;;;;;6415084;22;20019;-80
2024/04/25 00:09:53;;;;;;;10.77;7.65;;;1.80;1.00;;;;;;6418237;22;20003;-80
2024/04/25 00:13:30;;;;;;;13.02;7.88;;;1.80;1.00;;;;;;6403941;22;20014;-78
2024/04/25 00:16:24;;;;;;;11.95;7.03;;;1.70;46.90;;;;;;6404114;22;20433;-79
2024/04/25 00:19:21;;;;;;;11.90;7.35;;;1.70;99.90;;;;;;6368954;22;20002;-79
2024/04/25 00:22:17;;;;;;;9.90;7.78;;;1.70;99.90;;;;;;6403925;22;20443;-80
2024/04/25 00:25:08;;;;;;;13.82;8.18;;;1.60;99.90;;;;;;6417494;22;20007;-79
2024/04/25 00:27:58;;;;;;;12.48;8.35;;;1.60;99.90;;;;;;6408938;22;20014;-82
2024/04/25 00:30:50;;;;;;;10.63;7.65;;;1.50;99.90;;;;;;6404623;22;20016;-82
2024/04/25 00:33:38;;;;;;;11.35;8.15;;;1.50;1.00;;;;;;6420564;22;20016;-80
2024/04/25 00:37:20;;;;;;;11.73;8.38;;;1.40;1.00;;;;;;6422191;22;20077;-81
2024/04/25 00:40:20;;;;;;;11.45;7.72;;;1.40;9.00;;;;;;6364304;22;20456;-80
2024/04/25 00:43:44;;;;;;;;;;;;;;;;;;;;;
2024/04/25 00:46:44;;;;;;;16.50;9.05;;;1.20;99.90;;;;;;6406195;22;20014;-80
2024/04/25 00:50:11;;;;;;;13.82;8.10;;;1.20;99.90;;;;;;6374959;22;20002;-82
2024/04/25 00:53:27;;;;;;;;;;;;;;;;;;;;;
2024/04/25 00:56:42;;;;;;;18.10;9.13;;;1.00;78.70;;;;;;6402874;22;20026;-79
2024/04/25 01:00:11;;;;;;;16.48;9.18;;;1.00;99.90;;;;;;6399979;22;20009;-80
2024/04/25 01:03:38;;;;;;;14.88;9.18;;;0.90;99.90;;;;;;6411170;22;20006;-81
2024/04/25 01:06:33;;;;;;;14.77;8.57;;;0.90;1.00;;;;;;6386107;22;20006;-79
2024/04/25 01:09:36;;;;;;;16.38;9.77;;;0.90;99.90;;;;;;6388419;22;20595;-81
2024/04/25 01:12:38;;;;;;;14.77;8.98;;;0.90;99.90;;;;;;6416936;22;20034;-82
2024/04/25 01:16:21;;;;;;;14.40;9.13;;;1.00;99.90;;;;;;6200255;22;20098;-81
2024/04/25 01:19:21;;;;;;;17.98;9.68;;;1.20;1.00;;;;;;6405432;22;20074;-81
2024/04/25 01:22:51;;;;;;;;;;;1.30;56.90;;;;;;6401044;22;20015;-81
2024/04/25 01:25:44;;;;;;;15.07;9.23;;;1.40;99.90;;;;;;6373922;22;19922;-82
2024/04/25 01:28:45;;;;;;;17.02;10.07;;;1.50;99.90;;;;;;6409537;22;20002;-81
2024/04/25 01:31:34;;;;;;;19.75;11.20;;;1.50;99.90;;;;;;6431201;22;19991;-81
2024/04/25 01:34:32;;;;;;;15.40;10.05;;;1.40;52.00;;;;;;6414730;22;20085;-81
2024/04/25 01:37:25;;;;;;;20.00;11.65;;;1.40;1.00;;;;;;6372823;22;20017;-80
2024/04/25 01:40:20;;;;;;;15.80;9.98;;;1.30;1.00;;;;;;6402380;22;20007;-80
2024/04/25 01:43:21;;;;;;;20.92;11.25;;;1.40;41.60;;;;;;6404772;22;20046;-81
2024/04/25 01:46:57;;;;;;;14.35;9.80;;;1.40;99.90;;;;;;6411198;22;20059;-79
2024/04/25 01:50:41;;;;;;;20.83;10.18;;;1.40;99.90;;;;;;6376801;22;20007;-82
2024/04/25 01:54:23;;;;;;;18.55;11.38;;;1.50;99.90;;;;;;6398851;22;20110;-80
2024/04/25 01:57:42;;;;;;;18.95;10.65;;;1.60;99.90;;;;;;6408988;22;20002;-81
2024/04/25 02:00:38;;;;;;;16.75;9.73;;;1.60;99.90;;;;;;6401689;22;20003;-81
2024/04/25 02:03:33;;;;;;;15.13;10.50;;;1.70;99.90;;;;;;6385724;22;20074;-80
2024/04/25 02:06:24;;;;;;;20.88;11.40;;;1.80;99.90;;;;;;6392484;22;20036;-82
2024/04/25 02:09:13;;;;;;;21.85;10.35;;;1.90;99.90;;;;;;6420189;22;20020;-80
2024/04/25 02:12:27;;;;;;;17.63;10.40;;;2.00;99.90;;;;;;6415658;22;20061;-81
2024/04/25 02:15:54;;;;;;;19.20;11.63;;;2.00;99.90;;;;;;6423139;22;20007;-81
2024/04/25 02:18:45;;;;;;;14.52;10.82;;;2.00;99.90;;;;;;6414045;22;20002;-82
2024/04/25 02:25:14;;;;;;;19.67;11.48;;;2.10;99.90;;;;;;6424136;22;20013;-79
2024/04/25 02:28:12;;;;;;;21.33;12.02;;;2.10;99.90;;;;;;6369736;22;20006;-80
2024/04/25 02:31:10;;;;;;;17.45;12.32;;;2.10;99.90;;;;;;6401080;22;20023;-80
2024/04/25 02:34:37;;;;;;;19.08;13.18;;;2.10;91.50;;;;;;6411992;22;20007;-79
2024/04/25 02:37:35;;;;;;;17.13;12.38;;;2.10;1.00;;;;;;6398024;22;20080;-81
2024/04/25 02:40:28;;;;;;;16.90;12.50;;;2.10;1.00;;;;;;6400442;22;20006;-80
2024/04/25 02:43:16;;;;;;;20.30;11.85;;;2.10;99.90;;;;;;6368555;22;20304;-80
2024/04/25 02:46:21;;;;;;;17.23;12.23;;;2.10;99.90;;;;;;6366355;22;20003;-81
2024/04/25 02:49:23;;;;;;;20.00;12.00;;;2.20;99.90;;;;;;6406175;22;20840;-82
2024/04/25 02:52:13;;;;;;;19.50;12.68;;;2.20;27.70;;;;;;6405674;22;20002;-80
2024/04/25 02:55:01;;;;;;;20.75;12.13;;;2.20;1.00;;;;;;6367520;22;20014;-82
2024/04/25 02:57:54;;;;;;;22.27;13.43;;;2.10;1.00;;;;;;6421630;22;19999;-82
2024/04/25 03:01:10;;;;;;;20.02;12.88;;;2.10;1.00;;;;;;6438980;22;20290;-81
2024/04/25 03:04:09;;;;;;;24.73;12.23;;;2.10;1.00;;;;;;6389885;22;20001;-80
2024/04/25 03:06:59;;;;;;;19.45;11.88;;;2.00;35.00;;;;;;6443999;22;20013;-81
2024/04/25 03:09:59;;;;;;;21.13;11.45;;;2.00;9.60;;;;;;6376412;22;21012;-82
2024/04/25 03:12:49;;;;;;;18.50;11.13;;;2.00;46.70;;;;;;6409529;22;20006;-81
2024/04/25 03:15:51;;;;;;;20.20;12.93;;;2.00;53.70;;;;;;6423516;22;20099;-79
2024/04/25 03:19:04;;;;;;;21.15;13.38;;;1.90;99.90;;;;;;6421430;22;20506;-79
2024/04/25 03:21:52;;;;;;;24.20;14.02;;;1.90;99.90;;;;;;6395279;22;19999;-81
2024/04/25 03:24:47;;;;;;;19.45;13.02;;;1.90;99.90;;;;;;6399283;22;20542;-80
2024/04/25 03:27:34;;;;;;;21.98;13.27;;;1.90;1.00;;;;;;6408284;22;20007;-79
2024/04/25 03:30:28;;;;;;;18.05;12.25;;;1.90;1.00;;;;;;6422159;22;20010;-81
2024/04/25 03:33:21;;;;;;;18.00;12.57;;;1.80;1.00;;;;;;6421768;22;20010;-81
2024/04/25 03:36:27;;;;;;;20.58;12.18;;;1.80;99.90;;;;;;6407765;22;20013;-79
2024/04/25 03:39:51;;;;;;;21.35;12.43;;;1.80;99.90;;;;;;6405081;22;20007;-81
2024/04/25 03:42:47;;;;;;;21.83;12.87;;;1.70;99.90;;;;;;6414640;22;20007;-80
2024/04/25 03:45:46;;;;;;;23.00;14.18;;;1.70;99.90;;;;;;6423380;22;20299;-79
2024/04/25 03:48:43;;;;;;;22.05;13.10;;;1.80;99.90;;;;;;6387916;22;20312;-80
2024/04/25 03:51:44;;;;;;;22.02;13.30;;;1.70;1.00;;;;;;6404636;22;20003;-80
2024/04/25 03:54:37;;;;;;;24.90;14.10;;;1.70;1.00;;;;;;6419740;22;20006;-80
2024/04/25 03:57:33;;;;;;;23.35;13.68;;;1.80;1.00;;;;;;6419971;22;20006;-79
2024/04/25 04:00:24;;;;;;;19.95;13.55;;;1.80;1.00;;;;;;6361854;22;20043;-82
2024/04/25 04:03:24;;;;;;;21.10;14.07;;;1.80;1.00;;;;;;6423053;22;20017;-82
2024/04/25 04:06:19;;;;;;;22.77;13.07;;;1.80;1.00;;;;;;6395596;22;20026;-83
2024/04/25 04:09:12;;;;;;;19.58;12.68;;;1.80;1.00;;;;;;6385372;22;20021;-81
2024/04/25 04:12:37;;;;;;;25.77;13.02;;;1.80;16.40;;;;;;6392714;22;20090;-79
2024/04/25 04:15:28;;;;;;;24.67;12.85;;;1.90;31.80;;;;;;6421689;22;20445;-80
2024/04/25 04:18:30;;;;;;;24.92;13.10;;;1.90;16.30;;;;;;6394886;22;20764;-80
2024/04/25 04:21:27;;;;;;;24.80;13.40;;;2.00;1.00;;;;;;6422569;22;20007;-80
2024/04/25 04:24:16;;;;;;;23.88;13.25;;;2.00;1.00;;;;;;6426518;22;20007;-80
2024/04/25 04:27:10;;;;;;;22.85;13.05;;;2.00;1.00;;;;;;6409916;22;20038;-81
2024/04/25 04:30:01;;;;;;;27.70;13.88;;;2.00;1.00;;;;;;6406612;22;20007;-82
2024/04/25 04:33:24;;;;;;;22.85;14.13;;;2.10;99.90;;;;;;6374205;22;20523;-79
2024/04/25 04:36:22;;;;;;;26.15;13.60;;;2.10;99.90;;;;;;6423427;22;20293;-82
2024/04/25 04:39:13;;;;;;;22.42;12.80;;;2.10;99.90;;;;;;6421358;22;20006;-82
2024/04/25 04:42:00;;;;;;;21.70;13.45;;;2.10;50.50;;;;;;6339139;22;20015;-81
2024/04/25 04:45:13;;;;;;;24.88;13.82;;;2.10;1.00;;;;;;6410136;22;20006;-82
2024/04/25 04:48:19;;;;;;;25.13;14.55;;;2.10;1.00;;;;;;6443004;22;20014;-83
2024/04/25 04:51:22;;;;;;;22.88;13.60;;;2.10;1.00;;;;;;6442851;22;20021;-79
2024/04/25 04:54:12;;;;;;;23.08;13.18;;;2.10;1.00;;;;;;6417066;22;20013;-81
2024/04/25 05:00:26;;;;;;;27.13;14.23;;;2.00;99.90;;;;;;6420491;22;19923;-82
2024/04/25 05:03:25;;;;;;;26.13;14.70;;;2.10;1.00;;;;;;6395885;22;20578;-81
2024/04/25 05:06:13;;;;;;;30.30;15.38;;;2.10;1.00;;;;;;6416731;22;20010;-81
2024/04/25 05:09:09;;;;;;;25.80;15.30;;;2.10;1.00;;;;;;6373587;22;20400;-82
2024/04/25 05:11:59;;;;;;;30.17;14.85;;;2.10;1.00;;;;;;6425656;22;20021;-79
2024/04/25 05:14:51;;;;;;;24.67;16.23;;;2.20;1.00;;;;;;6415944;22;20006;-80
2024/04/25 05:17:46;;;;;;;24.90;16.95;;;2.20;1.00;;;;;;6372662;22;20298;-81
2024/04/25 05:20:34;;;;;;;27.92;18.15;;;2.20;99.90;;;;;;6408089;22;20021;-80
2024/04/25 05:23:25;;;;;;;28.80;17.70;;;2.20;99.90;;;;;;6373841;22;20006;-81
2024/04/25 05:26:39;;;;;;;28.90;17.83;;;2.30;99.90;;;;;;6341974;22;20002;-81
2024/04/25 05:29:48;;;;;;;25.00;17.00;;;2.30;99.90;;;;;;6410527;22;20010;-82
2024/04/25 05:32:55;;;;;;;25.00;16.50;;;2.30;99.90;;;;;;6410462;22;20593;-82
2024/04/25 05:35:50;;;;;;;30.42;15.68;;;2.40;99.90;;;;;;6375513;22;20007;-80
2024/04/25 05:38:38;;;;;;;29.73;16.00;;;2.40;1.00;;;;;;6408297;22;20306;-79
2024/04/25 05:42:31;;;;;;;24.38;15.27;;;2.50;21.10;;;;;;6400766;22;20005;-78
2024/04/25 05:46:20;;;;;;;27.17;16.05;;;2.50;1.00;;;;;;6438454;22;20011;-82
2024/04/25 05:50:23;;;;;;;;;;;;;;;;;;;;;
2024/04/25 06:02:25;;;;;;;;;;;;;;;;;;;;;
2024/04/25 06:14:21;;;;;;;19.85;11.15;;;3.20;1.00;;;;;;6359354;22;20133;-81
2024/04/25 06:18:08;;;;;;;;;;;;;;;;;;;;;
2024/04/25 06:26:14;;;;;;;;;;;;;;;;;;;;;
2024/04/25 06:30:25;;;;;;;13.25;9.43;;;3.40;99.90;;;;;;6208379;22;20001;-82
2024/04/25 06:34:53;;;;;;;;;;;;;;;;;;;;;
2024/04/25 06:38:32;;;;;;;;;;;;;;;;;;;;;
2024/04/25 06:46:37;;;;;;;9.70;6.53;;;3.70;99.90;;;;;;6236769;23;20001;-78
2024/04/25 07:20:36;;;;;;;6.40;2.90;;;5.70;99.90;;;;;;6448503;22;20010;-79
2024/04/25 07:24:12;;;;;;;7.07;3.65;;;5.90;99.90;;;;;;6345329;22;20069;-80
2024/04/25 07:27:26;;;;;;;6.90;4.18;;;5.50;99.90;;;;;;6356026;22;20003;-82
2024/04/25 07:30:23;;;;;;;;;;;5.40;99.90;;;;;;6297059;22;20287;-80
2024/04/25 07:33:10;;;;;;;8.38;4.40;;;5.40;93.80;;;;;;6321479;22;19924;-81
2024/04/25 07:35:58;;;;;;;11.55;4.40;;;5.70;93.10;;;;;;6305009;22;20016;-82
2024/04/25 07:38:46;;;;;;;12.00;4.05;;;5.90;26.70;;;;;;6305122;22;20371;-81
2024/04/25 07:41:33;;;;;;;5.97;3.88;;;5.90;1.00;;;;;;6306648;22;20022;-81
2024/04/25 07:44:21;;;;;;;6.18;4.28;;;5.90;1.00;;;;;;6311108;22;20000;-81
2024/04/25 07:47:11;;;;;;;4.80;3.40;;;5.60;1.00;;;;;;6303713;22;20036;-81
2024/04/25 07:50:00;;;;;;;7.38;4.15;;;5.60;1.00;;;;;;6305146;22;20004;-81
2024/04/25 07:52:47;;;;;;;7.93;4.28;;;5.60;1.00;;;;;;6302761;22;20044;-82
2024/04/25 07:55:35;;;;;;;7.57;4.03;;;5.40;1.00;;;;;;6308765;22;20022;-80
2024/04/25 07:58:26;;;;;;;5.57;3.72;;;5.40;1.00;;;;;;6306640;22;20703;-81
2024/04/25 08:01:16;;;;;;;8.65;4.10;;;5.70;1.00;;;;;;6266736;22;20045;-81
2024/04/25 08:04:04;;;;;;;8.95;3.92;;;5.90;1.00;;;;;;6304810;22;20043;-81
2024/04/25 08:06:51;;;;;;;5.45;3.67;;;6.20;99.90;;;;;;6307709;22;20015;-79
2024/04/25 08:09:44;;;;;;;6.50;3.72;;;6.10;99.90;;;;;;6325453;22;20087;-80
2024/04/25 08:12:32;;;;;;;6.38;3.45;;;6.10;99.90;;;;;;6309779;22;20299;-81
2024/04/25 08:15:38;;;;;;;;;;;;;;;;;;;;;
2024/04/25 08:18:38;;;;;;;7.20;4.00;;;6.30;99.90;;;;;;6347259;22;20003;-81
2024/04/25 08:21:32;;;;;;;7.05;3.42;;;6.40;99.90;;;;;;6328865;22;20022;-81
2024/04/25 08:24:24;;;;;;;6.70;3.20;;;6.50;99.90;;;;;;6310941;22;20019;-79
2024/04/25 08:27:35;;;;;;;6.13;3.90;;;6.50;99.90;;;;;;6303598;22;20114;-80
2024/04/25 08:30:28;;;;;;;15.98;4.82;;;6.30;99.90;;;;;;6329790;22;20015;-81
2024/04/25 08:33:18;;;;;;;9.35;3.97;;;6.30;99.90;;;;;;6320189;22;20404;-81
2024/04/25 08:36:20;;;;;;;8.73;4.25;;;6.50;99.90;;;;;;6295509;22;20019;-78
2024/04/25 08:39:28;;;;;;;7.40;3.70;;;6.50;99.90;;;;;;6326848;22;20007;-82
2024/04/25 08:42:21;;;;;;;6.50;3.40;;;6.80;99.90;;;;;;6322726;22;20028;-80
2024/04/25 08:45:16;;;;;;;7.32;3.40;;;7.00;99.90;;;;;;6306744;22;20052;-79
2024/04/25 08:48:16;;;;;;;10.30;3.95;;;7.10;99.90;;;;;;6307583;22;20015;-81
2024/04/25 08:51:25;;;;;;;5.45;3.60;;;7.50;99.90;;;;;;6289911;22;20007;-80
2024/04/25 08:54:29;;;;;;;8.02;3.20;;;7.60;99.90;;;;;;6286126;22;20008;-77
2024/04/25 08:57:29;;;;;;;4.68;2.50;;;7.80;99.90;;;;;;6290874;22;20265;-80
2024/04/25 09:00:40;;;;;;;11.10;3.50;;;8.00;99.90;;;;;;6288480;22;20012;-80
2024/04/25 09:03:43;;;;;;;;;;;;;;;;;;;;;
2024/04/25 09:06:48;;;;;;;7.85;2.95;;;7.30;99.90;;;;;;6291495;22;20011;-82
2024/04/25 09:09:44;;;;;;;5.47;2.90;;;7.30;99.90;;;;;;6305754;22;20023;-82
2024/04/25 09:12:54;;;;;;;7.55;2.60;;;7.10;99.90;;;;;;6318232;22;20020;-82
2024/04/25 09:16:09;;;;;;;5.15;2.40;;;7.10;99.90;;;;;;6291140;22;20004;-82
2024/04/25 09:19:00;;;;;;;6.45;2.97;;;7.30;99.90;;;;;;6305718;22;20019;-80
2024/04/25 09:21:47;;;;;;;4.05;2.55;;;7.50;99.90;;;;;;6306225;22;20584;-84
2024/04/25 09:28:13;;;;;;;8.52;2.80;;;7.40;91.60;;;;;;6313550;22;20015;-82
2024/04/25 09:31:12;;;;;;;6.57;2.53;;;8.50;86.40;;;;;;6306941;22;20314;-81
2024/04/25 09:34:06;;;;;;;5.22;2.17;;;9.80;70.40;;;;;;6275340;22;20709;-81
2024/04/25 09:36:55;;;;;;;4.00;2.13;;;11.40;36.80;;;;;;6307464;22;20015;-80
2024/04/25 09:39:52;;;;;;;4.15;2.28;;;11.10;9.40;;;;;;6326423;22;20030;-80
2024/04/25 09:42:53;;;;;;;5.30;2.10;;;10.00;1.00;;;;;;6302237;22;20004;-83
2024/04/25 09:45:55;;;;;;;8.23;2.55;;;9.50;1.00;;;;;;6301325;22;20004;-81
2024/04/25 09:48:51;;;;;;;7.13;2.73;;;9.10;1.00;;;;;;6317141;22;20139;-78
2024/04/25 09:51:46;;;;;;;8.43;2.38;;;8.60;1.00;;;;;;6289821;22;20008;-80
2024/04/25 09:55:45;;;;;;;5.15;2.08;;;8.50;1.00;;;;;;6289548;22;20004;-81
2024/04/25 09:58:58;;;;;;;6.47;2.22;;;8.50;1.00;;;;;;6304989;22;20011;-82
2024/04/25 10:01:56;;;;;;;3.47;2.20;;;8.50;1.00;;;;;;6309479;22;20003;-81
2024/04/25 10:04:49;;;;;;;3.15;1.80;;;8.70;1.00;;;;;;6268995;22;20007;-82
2024/04/25 10:07:52;;;;;;;2.90;2.00;;;8.60;1.00;;;;;;6306660;22;20036;-83
2024/04/25 10:10:50;;;;;;;4.13;1.83;;;8.30;1.00;;;;;;6275663;22;20369;-82
2024/04/25 10:13:49;;;;;;;5.55;2.65;;;8.30;1.00;;;;;;6309000;22;20481;-83
2024/04/25 10:16:40;;;;;;;3.70;2.08;;;8.70;1.00;;;;;;6308752;22;20008;-81
2024/04/25 10:19:38;;;;;;;3.55;2.05;;;8.90;1.00;;;;;;6306282;22;20022;-81
2024/04/25 10:22:30;;;;;;;3.85;2.30;;;9.00;1.00;;;;;;6306197;22;20804;-83
2024/04/25 10:25:29;;;;;;;6.30;1.90;;;9.20;1.00;;;;;;6306539;22;20019;-81
2024/04/25 10:28:18;;;;;;;3.67;1.73;;;9.50;1.00;;;;;;6309173;22;20008;-82
2024/04/25 10:31:35;;;;;;;1.40;1.30;;;9.80;1.00;;;;;;6314209;22;20004;-81
2024/04/25 10:34:29;;;;;;;1.75;1.30;;;9.60;1.00;;;;;;6305822;22;20008;-82
2024/04/25 10:37:23;;;;;;;4.75;2.38;;;9.90;1.00;;;;;;6275373;22;20043;-80
2024/04/25 10:40:13;;;;;;;3.92;2.20;;;9.70;1.00;;;;;;6304254;22;20011;-82
2024/04/25 10:43:12;;;;;;;4.20;2.17;;;9.70;1.00;;;;;;6317085;22;20083;-83
2024/04/25 10:45:59;;;;;;;1.63;1.42;;;9.80;1.00;;;;;;6303386;22;20014;-81
2024/04/25 10:49:15;;;;;;;2.25;1.20;;;9.50;1.00;;;;;;6309240;22;20114;-83
2024/04/25 10:52:13;;;;;;;3.00;1.73;;;9.50;1.00;;;;;;6304057;22;20008;-82
2024/04/25 10:55:04;;;;;;;3.45;1.95;;;10.20;1.00;;;;;;6266179;22;20399;-82
2024/04/25 10:58:15;;;;;;;4.15;1.85;;;10.60;1.00;;;;;;6301831;22;20004;-83
2024/04/25 11:01:09;;;;;;;3.00;2.10;;;11.10;1.00;;;;;;6309819;22;20004;-83
2024/04/25 11:04:49;;;;;;;6.82;1.92;;;11.20;1.00;;;;;;6324435;22;20057;-85
2024/04/25 11:11:43;;;;;;;2.83;1.60;;;10.90;1.00;;;;;;6307234;22;19952;-83
2024/04/25 11:15:01;;;;;;;3.80;1.52;;;8.40;1.00;;;;;;6157246;22;20007;-84
2024/04/25 11:18:33;;;;;;;;;;;;;;;;;;;;;
2024/04/25 11:21:28;;;;;;;1.60;1.50;;;6.50;1.00;;;;;;6323904;22;20008;-82
2024/04/25 11:24:21;;;;;;;1.52;1.30;;;5.80;1.00;;;;;;6325306;22;20053;-81
2024/04/25 11:27:35;;;;;;;2.17;1.30;;;5.90;1.00;;;;;;6311231;22;20025;-81
2024/04/25 11:34:39;;;;;;;2.47;1.13;;;9.40;1.00;;;;;;6308427;22;20437;-86
2024/04/25 11:37:38;;;;;;;1.88;1.20;;;9.60;1.00;;;;;;6306979;22;20519;-84
2024/04/25 11:40:52;;;;;;;1.75;1.20;;;9.90;1.00;;;;;;6320979;22;20180;-83
2024/04/25 11:43:46;;;;;;;1.75;1.00;;;11.30;1.00;;;;;;6307585;22;20018;-81
2024/04/25 11:46:41;;;;;;;6.20;1.42;;;12.90;1.00;;;;;;6306916;22;20000;-81
2024/04/25 11:49:29;;;;;;;3.78;1.80;;;13.70;1.00;;;;;;6301598;22;20008;-80
2024/04/25 11:52:27;;;;;;;2.28;1.13;;;14.70;1.00;;;;;;6300311;22;20012;-82
2024/04/25 11:55:39;;;;;;;2.47;1.00;;;14.70;1.00;;;;;;6298926;22;20037;-82
2024/04/25 11:58:34;;;;;;;4.63;1.77;;;13.80;1.00;;;;;;6305535;22;20040;-81
2024/04/25 12:01:34;;;;;;;2.67;1.33;;;11.80;1.00;;;;;;6277021;22;20019;-83
2024/04/25 12:04:32;;;;;;;3.13;1.50;;;10.80;1.00;;;;;;6304398;22;20004;-83
2024/04/25 12:07:49;;;;;;;2.03;1.10;;;11.10;1.00;;;;;;6300771;22;20007;-83
2024/04/25 12:10:50;;;;;;;4.97;1.70;;;11.60;1.00;;;;;;6275952;22;20015;-82
2024/04/25 12:13:53;;;;;;;6.03;1.85;;;10.70;1.00;;;;;;6307100;22;20548;-82
2024/04/25 12:16:49;;;;;;;3.00;1.90;;;10.00;1.00;;;;;;6304818;22;20057;-81
2024/04/25 12:20:16;;;;;;;3.58;2.08;;;9.80;1.00;;;;;;6277582;22;20540;-80
2024/04/25 12:23:33;;;;;;;4.20;1.70;;;10.40;1.00;;;;;;6278859;22;20019;-82
2024/04/25 12:26:44;;;;;;;4.97;1.50;;;11.20;1.00;;;;;;6304768;22;20015;-82
2024/04/25 12:29:54;;;;;;;3.28;1.67;;;12.10;1.00;;;;;;6306229;22;20004;-81
2024/04/25 12:33:38;;;;;;;3.28;1.92;;;12.30;1.00;;;;;;6307030;22;20008;-82
2024/04/25 12:36:58;;;;;;;12.40;2.83;;;11.90;1.00;;;;;;6172893;23;20001;-81
2024/04/25 12:39:46;;;;;;;2.47;1.42;;;12.10;1.00;;;;;;6225095;22;20004;-82
2024/04/25 12:43:04;;;;;;;4.30;1.65;;;11.80;1.00;;;;;;6310338;22;20012;-82
2024/04/25 12:46:13;;;;;;;3.90;1.77;;;12.00;1.00;;;;;;6274966;22;20008;-81
2024/04/25 12:49:36;;;;;;;2.22;1.52;;;12.30;1.00;;;;;;6305350;22;20007;-81
2024/04/25 12:52:33;;;;;;;3.38;1.90;;;12.50;1.00;;;;;;6305656;22;20057;-82
2024/04/25 12:55:21;;;;;;;2.17;1.50;;;12.30;1.00;;;;;;6307261;22;20406;-82
2024/04/25 12:58:28;;;;;;;2.85;1.95;;;11.70;1.00;;;;;;6302525;22;20078;-81
2024/04/25 13:01:41;;;;;;;3.55;1.80;;;11.20;1.00;;;;;;6160381;23;20017;-83
2024/04/25 13:04:57;;;;;;;4.57;2.05;;;11.10;1.00;;;;;;6164448;23;20056;-81
2024/04/25 13:07:55;;;;;;;4.55;1.80;;;11.10;1.00;;;;;;6163572;23;20010;-82
2024/04/25 13:10:55;;;;;;;3.78;2.42;;;10.90;1.00;;;;;;6162596;23;20449;-82
2024/04/25 13:14:25;;;;;;;5.68;1.95;;;11.50;1.00;;;;;;6127934;23;20039;-82
2024/04/25 13:21:42;;;;;;;2.05;1.60;;;13.60;1.00;;;;;;6146361;23;20002;-82
2024/04/25 13:24:43;;;;;;;4.03;1.83;;;12.60;1.00;;;;;;6178378;23;20021;-82
2024/04/25 13:27:33;;;;;;;6.18;1.88;;;11.70;1.00;;;;;;6149568;23;20509;-81
2024/04/25 13:30:35;;;;;;;3.45;1.75;;;11.40;1.00;;;;;;6218774;22;20012;-82
2024/04/25 13:33:50;;;;;;;5.82;1.70;;;10.90;1.00;;;;;;6291780;22;20008;-81
2024/04/25 13:37:14;;;;;;;3.85;1.95;;;11.10;1.00;;;;;;6318120;22;20060;-83
2024/04/25 13:40:40;;;;;;;2.50;1.50;;;11.60;1.00;;;;;;6320576;22;20087;-81
2024/04/25 13:44:00;;;;;;;4.70;1.83;;;12.20;1.00;;;;;;6292036;22;20080;-83
2024/04/25 13:47:03;;;;;;;5.10;2.03;;;12.70;1.00;;;;;;6307390;22;20008;-84
2024/04/25 13:50:10;;;;;;;3.38;1.83;;;12.80;1.00;;;;;;6275542;22;20008;-83
2024/04/25 13:52:58;;;;;;;3.60;1.92;;;12.80;1.00;;;;;;6274957;22;20080;-85
2024/04/25 13:56:03;;;;;;;2.05;1.77;;;11.80;1.00;;;;;;6280369;22;20036;-84
2024/04/25 13:59:00;;;;;;;2.70;1.60;;;11.80;1.00;;;;;;6302825;22;20007;-84
2024/04/25 14:01:59;;;;;;;5.70;2.60;;;12.00;1.00;;;;;;6279586;22;20053;-80
2024/04/25 14:04:47;;;;;;;4.15;2.55;;;12.20;1.00;;;;;;6306598;22;20041;-81
2024/04/25 14:07:59;;;;;;;3.67;2.15;;;12.30;1.00;;;;;;6277888;22;20445;-84
2024/04/25 14:11:00;;;;;;;6.35;2.15;;;12.10;1.00;;;;;;6305481;22;20003;-84
2024/04/25 14:13:53;;;;;;;4.07;2.20;;;11.50;1.00;;;;;;6273611;22;20091;-84
2024/04/25 14:16:53;;;;;;;4.25;1.85;;;12.00;1.00;;;;;;6303421;22;20033;-81
2024/04/25 14:19:50;;;;;;;3.95;1.70;;;12.20;1.00;;;;;;6274644;22;20018;-82
2024/04/25 14:22:43;;;;;;;2.88;1.98;;;12.30;1.00;;;;;;6303782;22;20008;-81
2024/04/25 14:29:09;;;;;;;3.88;1.85;;;12.00;1.00;;;;;;6303548;22;20000;-82
2024/04/25 14:31:56;;;;;;;4.18;1.90;;;11.00;1.00;;;;;;6311637;22;20007;-85
2024/04/25 14:34:50;;;;;;;3.80;1.90;;;11.00;1.00;;;;;;6307158;22;20438;-82
2024/04/25 14:37:41;;;;;;;2.75;1.80;;;10.80;1.00;;;;;;6307428;22;20042;-83
2024/04/25 14:40:38;;;;;;;1.95;1.70;;;10.80;1.00;;;;;;6310769;22;20007;-80
2024/04/25 14:43:37;;;;;;;1.70;1.50;;;11.20;1.00;;;;;;6330970;22;20000;-83
2024/04/25 14:47:00;;;;;;;1.95;1.60;;;12.00;1.00;;;;;;6315699;22;20008;-82
2024/04/25 14:50:00;;;;;;;2.60;1.60;;;12.60;1.00;;;;;;6305570;22;20030;-83
2024/04/25 14:53:05;;;;;;;3.95;1.90;;;12.80;1.00;;;;;;6311737;22;20015;-81
2024/04/25 14:56:12;;;;;;;2.75;1.50;;;13.30;1.00;;;;;;6301649;22;20035;-82
2024/04/25 14:59:12;;;;;;;3.53;1.65;;;14.20;1.00;;;;;;6309715;22;20093;-81
2024/04/25 15:02:16;;;;;;;4.63;1.80;;;14.30;1.00;;;;;;6276716;22;20123;-81
2024/04/25 15:05:50;;;;;;;2.63;1.52;;;13.90;1.00;;;;;;6304821;22;19999;-81
2024/04/25 15:08:52;;;;;;;4.28;1.83;;;13.80;1.00;;;;;;6177717;23;20010;-81
2024/04/25 15:12:13;;;;;;;2.78;1.65;;;15.10;1.00;;;;;;6165562;23;20006;-83
2024/04/25 15:15:01;;;;;;;2.83;1.95;;;15.10;1.00;;;;;;6311551;22;20840;-83
2024/04/25 15:18:07;;;;;;;5.00;2.17;;;14.20;1.00;;;;;;6306892;22;20020;-82
2024/04/25 15:21:04;;;;;;;8.02;2.50;;;12.80;1.00;;;;;;6291526;22;20003;-83
2024/04/25 15:23:51;;;;;;;4.35;2.33;;;11.60;1.00;;;;;;6320781;22;20107;-82
2024/04/25 15:26:46;;;;;;;2.97;1.80;;;11.30;1.00;;;;;;6302696;22;20280;-83
2024/04/25 15:30:00;;;;;;;3.58;1.98;;;11.20;1.00;;;;;;6280950;22;20029;-83
2024/04/25 15:32:51;;;;;;;3.10;1.73;;;11.20;1.00;;;;;;6308189;22;20008;-83
2024/04/25 15:35:42;;;;;;;2.80;1.90;;;11.30;1.00;;;;;;6258308;22;20015;-83
2024/04/25 15:38:53;;;;;;;;;;;11.00;1.00;;;;;;6316848;22;20015;-82
2024/04/25 15:41:41;;;;;;;6.30;2.83;;;10.50;1.00;;;;;;6327456;22;19932;-82
2024/04/25 15:44:41;;;;;;;5.00;2.47;;;10.00;1.00;;;;;;6291443;22;20004;-84
2024/04/25 15:47:36;;;;;;;4.22;2.42;;;9.70;1.00;;;;;;6329857;22;20012;-81
2024/04/25 15:50:29;;;;;;;4.78;2.38;;;9.20;1.00;;;;;;6327357;22;20007;-83
2024/04/25 15:53:19;;;;;;;3.55;2.08;;;9.00;1.00;;;;;;6324578;22;20024;-82
2024/04/25 15:56:10;;;;;;;5.22;2.40;;;9.00;1.00;;;;;;6310844;22;20004;-83
2024/04/25 15:58:58;;;;;;;3.67;2.30;;;8.80;1.00;;;;;;6307192;22;20022;-84
2024/04/25 16:01:46;;;;;;;6.10;2.63;;;8.80;1.00;;;;;;6305708;22;20032;-82
2024/04/25 16:04:42;;;;;;;6.38;2.92;;;8.70;1.00;;;;;;6305827;22;20004;-81
2024/04/25 16:07:29;;;;;;;5.65;2.10;;;9.10;1.00;;;;;;6306050;22;20019;-83
2024/04/25 16:10:22;;;;;;;7.38;3.63;;;9.50;1.00;;;;;;6310449;22;20297;-83
2024/04/25 16:13:21;;;;;;;7.70;3.00;;;9.50;1.00;;;;;;6312147;22;20115;-84
2024/04/25 16:16:16;;;;;;;5.80;2.33;;;9.40;1.00;;;;;;6300510;22;20035;-83
2024/04/25 16:19:09;;;;;;;8.63;2.60;;;9.00;1.00;;;;;;6271654;22;20015;-85
2024/04/25 16:22:05;;;;;;;5.85;2.47;;;8.70;1.00;;;;;;6306263;22;20027;-83
2024/04/25 16:25:42;;;;;;;6.47;2.78;;;8.60;1.00;;;;;;6277863;22;20001;-83
2024/04/25 16:28:31;;;;;;;5.90;3.03;;;8.40;1.00;;;;;;6304323;22;20019;-82
2024/04/25 16:31:33;;;;;;;7.43;3.10;;;8.30;1.00;;;;;;6281618;22;20682;-81
2024/04/25 16:34:24;;;;;;;4.70;2.67;;;8.10;1.00;;;;;;6309270;22;20004;-82
2024/04/25 16:37:22;;;;;;;6.68;2.97;;;8.00;1.00;;;;;;6307985;22;20000;-83
2024/04/25 16:40:10;;;;;;;4.97;2.50;;;7.90;1.00;;;;;;6304144;22;20022;-82
2024/04/25 16:43:16;;;;;;;9.35;2.90;;;7.80;1.00;;;;;;6264790;22;20004;-82
2024/04/25 16:46:03;;;;;;;7.93;3.08;;;7.70;1.00;;;;;;6273421;22;20016;-82
2024/04/25 16:49:05;;;;;;;5.07;2.83;;;7.70;1.00;;;;;;6306110;22;20004;-83
2024/04/25 16:52:00;;;;;;;6.97;2.75;;;7.70;1.00;;;;;;6312115;22;20147;-83
2024/04/25 16:54:55;;;;;;;7.95;3.63;;;7.70;1.00;;;;;;6320443;22;20108;-83
2024/04/25 16:58:10;;;;;;;8.27;3.17;;;7.70;1.00;;;;;;6326045;22;20008;-82
2024/04/25 17:01:02;;;;;;;8.05;3.50;;;7.70;1.00;;;;;;6309696;22;20000;-82
2024/04/25 17:03:53;;;;;;;8.10;3.58;;;7.70;1.00;;;;;;6308702;22;20019;-80
2024/04/25 17:06:41;;;;;;;9.30;3.53;;;7.70;1.00;;;;;;6319389;22;20000;-81
2024/04/25 17:09:28;;;;;;;9.38;4.35;;;7.70;1.00;;;;;;6321148;22;20825;-81
2024/04/25 17:12:16;;;;;;;6.50;3.30;;;7.60;1.00;;;;;;6312485;22;20080;-81
2024/04/25 17:15:15;;;;;;;5.90;3.25;;;7.60;1.00;;;;;;6297193;22;20008;-82
2024/04/25 17:18:04;;;;;;;6.93;2.42;;;7.60;1.00;;;;;;6327229;22;20406;-80
2024/04/25 17:20:51;;;;;;;8.20;2.63;;;7.50;1.00;;;;;;6316703;22;20464;-81
2024/04/25 17:23:39;;;;;;;7.20;3.10;;;7.50;1.00;;;;;;6305513;22;20176;-80
2024/04/25 17:26:28;;;;;;;8.88;2.85;;;7.50;1.00;;;;;;6309350;22;20055;-81
2024/04/25 17:29:29;;;;;;;9.63;3.63;;;7.60;1.00;;;;;;6272067;22;20014;-82
2024/04/25 17:32:19;;;;;;;6.78;3.45;;;7.60;1.00;;;;;;6308621;22;20011;-81
2024/04/25 17:35:18;;;;;;;5.75;3.33;;;7.70;1.00;;;;;;6308165;22;20019;-80
2024/04/25 17:38:05;;;;;;;9.18;3.60;;;7.70;1.00;;;;;;6308932;22;20323;-81